WRO weather

Copernicus Wrocław Airport
Wrocław, Lower Silesia, Poland

Public forecast

Using degrees Celsius for public forecast. Weather courtesy of forecast.io.

Current aviation weather report (METAR) for Copernicus Wrocław Airport

Retrieved 2019/12/12 23:30 UTC (12 minutes ago):

EPWR 122330Z 14007KT 8000 FEW048 00/M02 Q0999

Aviation forecast (TAF) for Copernicus Wrocław Airport

Retrieved 2019/12/12 21:33 UTC (2 hours ago):

TAF EPWR 122030Z 1221/1321 12005KT 8000 NSC BECMG 1223/1302 BKN014 TEMPO 1223/1306 3000 -SN BR BKN008 BECMG 1307/1309 SCT030 TEMPO 1309/1314 14015G25KT BECMG 1315/1318 18012KT